sensor_id;sensor_type;location;lat;lon;timestamp;temperature;humidity
78541;SHT31;67835;51.968;5.646;2023-09-07T00:00:52;24.3;56.9
78541;SHT31;67835;51.968;5.646;2023-09-07T00:03:20;24.3;57.1
78541;SHT31;67835;51.968;5.646;2023-09-07T00:05:49;24.3;57.2
78541;SHT31;67835;51.968;5.646;2023-09-07T00:08:18;24.2;57.1
78541;SHT31;67835;51.968;5.646;2023-09-07T00:10:46;24.2;57.2
78541;SHT31;67835;51.968;5.646;2023-09-07T00:13:17;24.2;57.3
78541;SHT31;67835;51.968;5.646;2023-09-07T00:15:46;24.2;57.3
78541;SHT31;67835;51.968;5.646;2023-09-07T00:18:14;24.2;57.4
78541;SHT31;67835;51.968;5.646;2023-09-07T00:20:43;24.2;57.4
78541;SHT31;67835;51.968;5.646;2023-09-07T00:23:11;24.1;57.4
78541;SHT31;67835;51.968;5.646;2023-09-07T00:25:40;24.1;57.5
78541;SHT31;67835;51.968;5.646;2023-09-07T00:28:08;24.1;57.6
78541;SHT31;67835;51.968;5.646;2023-09-07T00:30:37;24.1;57.7
78541;SHT31;67835;51.968;5.646;2023-09-07T00:33:07;24.1;57.7
78541;SHT31;67835;51.968;5.646;2023-09-07T00:35:37;24.0;57.7
78541;SHT31;67835;51.968;5.646;2023-09-07T00:38:05;24.0;57.8
78541;SHT31;67835;51.968;5.646;2023-09-07T00:40:35;24.0;57.8
78541;SHT31;67835;51.968;5.646;2023-09-07T00:43:04;24.0;57.8
78541;SHT31;67835;51.968;5.646;2023-09-07T00:45:33;24.0;58.0
78541;SHT31;67835;51.968;5.646;2023-09-07T00:48:02;24.0;57.8
78541;SHT31;67835;51.968;5.646;2023-09-07T00:50:31;23.9;57.9
78541;SHT31;67835;51.968;5.646;2023-09-07T00:53:01;23.9;57.9
78541;SHT31;67835;51.968;5.646;2023-09-07T00:55:33;23.9;58.0
78541;SHT31;67835;51.968;5.646;2023-09-07T00:58:03;23.9;58.0
78541;SHT31;67835;51.968;5.646;2023-09-07T01:00:32;23.9;58.0
78541;SHT31;67835;51.968;5.646;2023-09-07T01:03:02;23.9;58.1
78541;SHT31;67835;51.968;5.646;2023-09-07T01:05:35;23.8;58.1
78541;SHT31;67835;51.968;5.646;2023-09-07T01:08:14;23.8;58.1
78541;SHT31;67835;51.968;5.646;2023-09-07T01:10:43;23.8;58.0
78541;SHT31;67835;51.968;5.646;2023-09-07T01:13:13;23.8;58.3
78541;SHT31;67835;51.968;5.646;2023-09-07T01:15:41;23.8;58.2
78541;SHT31;67835;51.968;5.646;2023-09-07T01:18:10;23.7;58.1
78541;SHT31;67835;51.968;5.646;2023-09-07T01:20:41;23.7;58.1
78541;SHT31;67835;51.968;5.646;2023-09-07T01:23:12;23.7;58.3
78541;SHT31;67835;51.968;5.646;2023-09-07T01:25:43;23.7;58.1
78541;SHT31;67835;51.968;5.646;2023-09-07T01:28:12;23.7;58.2
78541;SHT31;67835;51.968;5.646;2023-09-07T01:30:41;23.6;58.3
78541;SHT31;67835;51.968;5.646;2023-09-07T01:33:10;23.6;58.4
78541;SHT31;67835;51.968;5.646;2023-09-07T01:35:41;23.6;58.3
78541;SHT31;67835;51.968;5.646;2023-09-07T01:38:10;23.6;58.3
78541;SHT31;67835;51.968;5.646;2023-09-07T01:40:39;23.6;58.3
78541;SHT31;67835;51.968;5.646;2023-09-07T01:43:07;23.5;58.4
78541;SHT31;67835;51.968;5.646;2023-09-07T01:45:36;23.5;58.7
78541;SHT31;67835;51.968;5.646;2023-09-07T01:48:07;23.5;58.6
78541;SHT31;67835;51.968;5.646;2023-09-07T01:50:36;23.5;58.6
78541;SHT31;67835;51.968;5.646;2023-09-07T01:53:05;23.4;58.8
78541;SHT31;67835;51.968;5.646;2023-09-07T01:55:34;23.4;58.8
78541;SHT31;67835;51.968;5.646;2023-09-07T01:58:05;23.4;59.0
78541;SHT31;67835;51.968;5.646;2023-09-07T02:00:38;23.4;59.0
78541;SHT31;67835;51.968;5.646;2023-09-07T02:03:07;23.3;59.1
78541;SHT31;67835;51.968;5.646;2023-09-07T02:05:36;23.3;59.1
78541;SHT31;67835;51.968;5.646;2023-09-07T02:08:07;23.3;59.3
78541;SHT31;67835;51.968;5.646;2023-09-07T02:10:36;23.3;59.2
78541;SHT31;67835;51.968;5.646;2023-09-07T02:13:05;23.2;59.4
78541;SHT31;67835;51.968;5.646;2023-09-07T02:15:37;23.2;59.4
78541;SHT31;67835;51.968;5.646;2023-09-07T02:18:06;23.2;59.4
78541;SHT31;67835;51.968;5.646;2023-09-07T02:20:35;23.2;59.3
78541;SHT31;67835;51.968;5.646;2023-09-07T02:23:03;23.2;59.2
78541;SHT31;67835;51.968;5.646;2023-09-07T02:25:32;23.2;59.2
78541;SHT31;67835;51.968;5.646;2023-09-07T02:28:01;23.1;59.2
78541;SHT31;67835;51.968;5.646;2023-09-07T02:30:31;23.1;59.2
78541;SHT31;67835;51.968;5.646;2023-09-07T02:33:00;23.1;59.2
78541;SHT31;67835;51.968;5.646;2023-09-07T02:35:31;23.1;59.2
78541;SHT31;67835;51.968;5.646;2023-09-07T02:38:00;23.1;59.2
78541;SHT31;67835;51.968;5.646;2023-09-07T02:40:28;23.1;59.2
78541;SHT31;67835;51.968;5.646;2023-09-07T02:42:57;23.1;59.1
78541;SHT31;67835;51.968;5.646;2023-09-07T02:45:26;23.1;59.2
78541;SHT31;67835;51.968;5.646;2023-09-07T02:47:54;23.1;59.1
78541;SHT31;67835;51.968;5.646;2023-09-07T02:50:23;23.1;59.0
78541;SHT31;67835;51.968;5.646;2023-09-07T02:52:51;23.1;59.1
78541;SHT31;67835;51.968;5.646;2023-09-07T02:55:20;23.1;59.0
78541;SHT31;67835;51.968;5.646;2023-09-07T02:57:49;23.1;59.1
78541;SHT31;67835;51.968;5.646;2023-09-07T03:00:18;23.1;59.1
78541;SHT31;67835;51.968;5.646;2023-09-07T03:02:47;23.1;59.0
78541;SHT31;67835;51.968;5.646;2023-09-07T03:05:16;23.1;58.9
78541;SHT31;67835;51.968;5.646;2023-09-07T03:07:46;23.1;58.9
78541;SHT31;67835;51.968;5.646;2023-09-07T03:10:15;23.1;59.0
78541;SHT31;67835;51.968;5.646;2023-09-07T03:12:44;23.1;59.0
78541;SHT31;67835;51.968;5.646;2023-09-07T03:15:13;23.1;59.0
78541;SHT31;67835;51.968;5.646;2023-09-07T03:17:41;23.0;59.2
78541;SHT31;67835;51.968;5.646;2023-09-07T03:20:11;23.0;59.1
78541;SHT31;67835;51.968;5.646;2023-09-07T03:22:43;23.0;59.1
78541;SHT31;67835;51.968;5.646;2023-09-07T03:25:13;23.0;59.2
78541;SHT31;67835;51.968;5.646;2023-09-07T03:27:42;23.0;59.1
78541;SHT31;67835;51.968;5.646;2023-09-07T03:30:12;22.9;59.2
78541;SHT31;67835;51.968;5.646;2023-09-07T03:32:42;22.9;59.3
78541;SHT31;67835;51.968;5.646;2023-09-07T03:35:10;22.9;59.3
78541;SHT31;67835;51.968;5.646;2023-09-07T03:37:41;22.9;59.4
78541;SHT31;67835;51.968;5.646;2023-09-07T03:40:11;22.9;59.2
78541;SHT31;67835;51.968;5.646;2023-09-07T03:42:39;22.8;59.5
78541;SHT31;67835;51.968;5.646;2023-09-07T03:45:09;22.8;59.3
78541;SHT31;67835;51.968;5.646;2023-09-07T03:47:39;22.8;59.4
78541;SHT31;67835;51.968;5.646;2023-09-07T03:50:09;22.8;59.7
78541;SHT31;67835;51.968;5.646;2023-09-07T03:52:38;22.8;59.2
78541;SHT31;67835;51.968;5.646;2023-09-07T03:55:07;22.8;59.1
78541;SHT31;67835;51.968;5.646;2023-09-07T03:57:39;22.8;59.0
78541;SHT31;67835;51.968;5.646;2023-09-07T04:00:09;22.8;59.1
78541;SHT31;67835;51.968;5.646;2023-09-07T04:02:38;22.8;59.2
78541;SHT31;67835;51.968;5.646;2023-09-07T04:05:08;22.8;59.2
78541;SHT31;67835;51.968;5.646;2023-09-07T04:07:38;22.7;59.2
78541;SHT31;67835;51.968;5.646;2023-09-07T04:10:07;22.7;59.3
78541;SHT31;67835;51.968;5.646;2023-09-07T04:12:36;22.7;59.3
78541;SHT31;67835;51.968;5.646;2023-09-07T04:15:06;22.7;59.5
78541;SHT31;67835;51.968;5.646;2023-09-07T04:17:37;22.6;59.5
78541;SHT31;67835;51.968;5.646;2023-09-07T04:20:09;22.6;59.7
78541;SHT31;67835;51.968;5.646;2023-09-07T04:22:40;22.6;59.5
78541;SHT31;67835;51.968;5.646;2023-09-07T04:25:13;22.5;59.7
78541;SHT31;67835;51.968;5.646;2023-09-07T04:27:43;22.5;59.9
78541;SHT31;67835;51.968;5.646;2023-09-07T04:30:14;22.6;59.5
78541;SHT31;67835;51.968;5.646;2023-09-07T04:32:43;22.5;59.4
78541;SHT31;67835;51.968;5.646;2023-09-07T04:35:12;22.5;59.6
78541;SHT31;67835;51.968;5.646;2023-09-07T04:37:43;22.5;59.7
78541;SHT31;67835;51.968;5.646;2023-09-07T04:40:12;22.5;59.7
78541;SHT31;67835;51.968;5.646;2023-09-07T04:42:40;22.5;59.7
78541;SHT31;67835;51.968;5.646;2023-09-07T04:45:10;22.4;59.8
78541;SHT31;67835;51.968;5.646;2023-09-07T04:47:39;22.4;59.6
78541;SHT31;67835;51.968;5.646;2023-09-07T04:50:08;22.4;59.8
78541;SHT31;67835;51.968;5.646;2023-09-07T04:52:37;22.3;60.0
78541;SHT31;67835;51.968;5.646;2023-09-07T04:55:07;22.3;60.0
78541;SHT31;67835;51.968;5.646;2023-09-07T04:57:36;22.3;60.1
78541;SHT31;67835;51.968;5.646;2023-09-07T05:00:07;22.2;60.2
78541;SHT31;67835;51.968;5.646;2023-09-07T05:02:36;22.2;60.1
78541;SHT31;67835;51.968;5.646;2023-09-07T05:05:08;22.2;60.0
78541;SHT31;67835;51.968;5.646;2023-09-07T05:07:38;22.2;60.2
78541;SHT31;67835;51.968;5.646;2023-09-07T05:10:07;22.1;60.1
78541;SHT31;67835;51.968;5.646;2023-09-07T05:12:38;22.1;60.0
78541;SHT31;67835;51.968;5.646;2023-09-07T05:15:08;22.1;60.2
78541;SHT31;67835;51.968;5.646;2023-09-07T05:17:37;22.1;60.1
78541;SHT31;67835;51.968;5.646;2023-09-07T05:20:07;22.1;60.0
78541;SHT31;67835;51.968;5.646;2023-09-07T05:22:37;22.1;59.9
78541;SHT31;67835;51.968;5.646;2023-09-07T05:25:08;22.0;59.8
78541;SHT31;67835;51.968;5.646;2023-09-07T05:27:38;22.0;59.9
78541;SHT31;67835;51.968;5.646;2023-09-07T05:30:07;22.0;59.8
78541;SHT31;67835;51.968;5.646;2023-09-07T05:32:37;22.0;59.9
78541;SHT31;67835;51.968;5.646;2023-09-07T05:35:06;22.0;59.7
78541;SHT31;67835;51.968;5.646;2023-09-07T05:37:37;22.0;59.7
78541;SHT31;67835;51.968;5.646;2023-09-07T05:40:07;22.0;59.8
78541;SHT31;67835;51.968;5.646;2023-09-07T05:42:38;22.1;59.7
78541;SHT31;67835;51.968;5.646;2023-09-07T05:45:08;22.1;59.9
78541;SHT31;67835;51.968;5.646;2023-09-07T05:47:37;22.2;59.7
78541;SHT31;67835;51.968;5.646;2023-09-07T05:50:07;22.3;59.3
78541;SHT31;67835;51.968;5.646;2023-09-07T05:52:36;22.5;58.7
78541;SHT31;67835;51.968;5.646;2023-09-07T05:55:06;22.7;58.1
78541;SHT31;67835;51.968;5.646;2023-09-07T05:57:35;22.9;57.6
78541;SHT31;67835;51.968;5.646;2023-09-07T06:00:04;23.1;57.2
78541;SHT31;67835;51.968;5.646;2023-09-07T06:02:33;23.3;56.7
78541;SHT31;67835;51.968;5.646;2023-09-07T06:05:02;23.5;55.5
78541;SHT31;67835;51.968;5.646;2023-09-07T06:07:31;23.8;55.0
78541;SHT31;67835;51.968;5.646;2023-09-07T06:10:00;24.0;54.3
78541;SHT31;67835;51.968;5.646;2023-09-07T06:12:28;24.2;53.8
78541;SHT31;67835;51.968;5.646;2023-09-07T06:14:57;24.5;53.7
78541;SHT31;67835;51.968;5.646;2023-09-07T06:17:27;24.8;53.2
78541;SHT31;67835;51.968;5.646;2023-09-07T06:19:56;25.0;52.0
78541;SHT31;67835;51.968;5.646;2023-09-07T06:22:27;25.3;51.0
78541;SHT31;67835;51.968;5.646;2023-09-07T06:24:55;25.5;50.4
78541;SHT31;67835;51.968;5.646;2023-09-07T06:27:25;25.7;50.2
78541;SHT31;67835;51.968;5.646;2023-09-07T06:29:53;25.9;50.2
78541;SHT31;67835;51.968;5.646;2023-09-07T06:32:22;26.1;49.0
78541;SHT31;67835;51.968;5.646;2023-09-07T06:34:52;26.3;48.7
78541;SHT31;67835;51.968;5.646;2023-09-07T06:37:22;26.5;48.3
78541;SHT31;67835;51.968;5.646;2023-09-07T06:39:52;26.7;47.9
78541;SHT31;67835;51.968;5.646;2023-09-07T06:42:20;26.9;47.4
78541;SHT31;67835;51.968;5.646;2023-09-07T06:44:49;27.0;47.1
78541;SHT31;67835;51.968;5.646;2023-09-07T06:47:18;27.2;46.7
78541;SHT31;67835;51.968;5.646;2023-09-07T06:49:49;27.4;46.9
78541;SHT31;67835;51.968;5.646;2023-09-07T06:52:18;27.6;46.2
78541;SHT31;67835;51.968;5.646;2023-09-07T06:54:46;27.9;46.0
78541;SHT31;67835;51.968;5.646;2023-09-07T06:57:15;28.1;45.9
78541;SHT31;67835;51.968;5.646;2023-09-07T06:59:43;28.3;45.2
78541;SHT31;67835;51.968;5.646;2023-09-07T07:02:12;28.6;44.8
78541;SHT31;67835;51.968;5.646;2023-09-07T07:04:41;28.8;45.1
78541;SHT31;67835;51.968;5.646;2023-09-07T07:07:10;29.1;44.0
78541;SHT31;67835;51.968;5.646;2023-09-07T07:09:39;29.4;43.2
78541;SHT31;67835;51.968;5.646;2023-09-07T07:12:08;29.7;42.6
78541;SHT31;67835;51.968;5.646;2023-09-07T07:14:37;29.9;43.0
78541;SHT31;67835;51.968;5.646;2023-09-07T07:17:05;30.2;41.7
78541;SHT31;67835;51.968;5.646;2023-09-07T07:19:34;30.5;41.5
78541;SHT31;67835;51.968;5.646;2023-09-07T07:22:03;30.8;41.2
78541;SHT31;67835;51.968;5.646;2023-09-07T07:24:34;31.1;41.2
78541;SHT31;67835;51.968;5.646;2023-09-07T07:27:02;31.4;40.3
78541;SHT31;67835;51.968;5.646;2023-09-07T07:29:33;31.7;38.9
78541;SHT31;67835;51.968;5.646;2023-09-07T07:32:02;32.0;38.8
78541;SHT31;67835;51.968;5.646;2023-09-07T07:34:30;32.2;39.1
78541;SHT31;67835;51.968;5.646;2023-09-07T07:36:59;32.4;37.9
78541;SHT31;67835;51.968;5.646;2023-09-07T07:39:27;32.7;37.6
78541;SHT31;67835;51.968;5.646;2023-09-07T07:41:58;32.8;37.1
78541;SHT31;67835;51.968;5.646;2023-09-07T07:44:26;33.0;37.7
78541;SHT31;67835;51.968;5.646;2023-09-07T07:46:55;33.2;37.9
78541;SHT31;67835;51.968;5.646;2023-09-07T07:49:23;33.5;36.9
78541;SHT31;67835;51.968;5.646;2023-09-07T07:51:53;33.8;36.7
78541;SHT31;67835;51.968;5.646;2023-09-07T07:54:24;34.2;35.3
78541;SHT31;67835;51.968;5.646;2023-09-07T07:56:55;34.5;35.0
78541;SHT31;67835;51.968;5.646;2023-09-07T07:59:23;34.7;34.3
78541;SHT31;67835;51.968;5.646;2023-09-07T08:01:52;34.9;34.7
78541;SHT31;67835;51.968;5.646;2023-09-07T08:04:21;35.2;33.7
78541;SHT31;67835;51.968;5.646;2023-09-07T08:06:50;35.5;33.2
78541;SHT31;67835;51.968;5.646;2023-09-07T08:09:24;35.7;33.0
78541;SHT31;67835;51.968;5.646;2023-09-07T08:11:53;36.0;32.6
78541;SHT31;67835;51.968;5.646;2023-09-07T08:14:23;36.2;33.0
78541;SHT31;67835;51.968;5.646;2023-09-07T08:16:53;36.4;31.5
78541;SHT31;67835;51.968;5.646;2023-09-07T08:19:22;36.7;31.6
78541;SHT31;67835;51.968;5.646;2023-09-07T08:21:51;36.9;30.5
78541;SHT31;67835;51.968;5.646;2023-09-07T08:24:19;37.1;30.1
78541;SHT31;67835;51.968;5.646;2023-09-07T08:26:48;37.3;30.7
78541;SHT31;67835;51.968;5.646;2023-09-07T08:29:18;37.4;29.7
78541;SHT31;67835;51.968;5.646;2023-09-07T08:31:47;37.6;30.4
78541;SHT31;67835;51.968;5.646;2023-09-07T08:34:20;37.7;30.4
78541;SHT31;67835;51.968;5.646;2023-09-07T08:36:50;37.9;30.3
78541;SHT31;67835;51.968;5.646;2023-09-07T08:39:21;38.1;29.2
78541;SHT31;67835;51.968;5.646;2023-09-07T08:41:50;38.2;29.8
78541;SHT31;67835;51.968;5.646;2023-09-07T08:44:20;38.4;28.8
78541;SHT31;67835;51.968;5.646;2023-09-07T08:46:52;38.5;29.4
78541;SHT31;67835;51.968;5.646;2023-09-07T08:49:21;38.6;28.7
78541;SHT31;67835;51.968;5.646;2023-09-07T08:51:51;38.8;29.6
78541;SHT31;67835;51.968;5.646;2023-09-07T08:54:21;39.0;29.0
78541;SHT31;67835;51.968;5.646;2023-09-07T08:56:51;39.3;28.8
78541;SHT31;67835;51.968;5.646;2023-09-07T08:59:19;39.5;28.3
78541;SHT31;67835;51.968;5.646;2023-09-07T09:01:48;39.8;28.6
78541;SHT31;67835;51.968;5.646;2023-09-07T09:04:17;40.0;28.0
78541;SHT31;67835;51.968;5.646;2023-09-07T09:06:47;40.2;28.6
78541;SHT31;67835;51.968;5.646;2023-09-07T09:09:24;40.4;27.6
78541;SHT31;67835;51.968;5.646;2023-09-07T09:11:53;40.7;27.5
78541;SHT31;67835;51.968;5.646;2023-09-07T09:14:24;40.9;27.9
78541;SHT31;67835;51.968;5.646;2023-09-07T09:16:52;41.1;26.8
78541;SHT31;67835;51.968;5.646;2023-09-07T09:19:32;41.3;26.3
78541;SHT31;67835;51.968;5.646;2023-09-07T09:22:01;41.5;25.7
78541;SHT31;67835;51.968;5.646;2023-09-07T09:24:32;41.6;26.3
78541;SHT31;67835;51.968;5.646;2023-09-07T09:27:01;41.7;25.9
78541;SHT31;67835;51.968;5.646;2023-09-07T09:29:32;41.8;26.1
78541;SHT31;67835;51.968;5.646;2023-09-07T09:32:02;41.9;25.1
78541;SHT31;67835;51.968;5.646;2023-09-07T09:34:35;42.0;25.1
78541;SHT31;67835;51.968;5.646;2023-09-07T09:37:14;42.1;25.2
78541;SHT31;67835;51.968;5.646;2023-09-07T09:39:49;42.2;25.6
78541;SHT31;67835;51.968;5.646;2023-09-07T09:42:20;42.4;24.4
78541;SHT31;67835;51.968;5.646;2023-09-07T09:44:49;42.6;24.0
78541;SHT31;67835;51.968;5.646;2023-09-07T09:47:21;42.7;24.2
78541;SHT31;67835;51.968;5.646;2023-09-07T09:49:51;42.8;24.0
78541;SHT31;67835;51.968;5.646;2023-09-07T09:52:21;43.0;24.9
78541;SHT31;67835;51.968;5.646;2023-09-07T09:54:53;43.2;24.0
78541;SHT31;67835;51.968;5.646;2023-09-07T09:57:22;43.3;23.5
78541;SHT31;67835;51.968;5.646;2023-09-07T09:59:51;43.5;23.5
78541;SHT31;67835;51.968;5.646;2023-09-07T10:02:20;43.6;24.6
78541;SHT31;67835;51.968;5.646;2023-09-07T10:04:50;43.7;23.5
78541;SHT31;67835;51.968;5.646;2023-09-07T10:07:39;43.8;24.2
78541;SHT31;67835;51.968;5.646;2023-09-07T10:10:04;44.0;24.2
78541;SHT31;67835;51.968;5.646;2023-09-07T10:12:41;44.2;23.0
78541;SHT31;67835;51.968;5.646;2023-09-07T10:15:22;44.3;23.0
78541;SHT31;67835;51.968;5.646;2023-09-07T10:18:08;44.4;23.3
78541;SHT31;67835;51.968;5.646;2023-09-07T10:20:49;44.5;22.4
78541;SHT31;67835;51.968;5.646;2023-09-07T10:23:19;44.5;22.1
78541;SHT31;67835;51.968;5.646;2023-09-07T10:25:53;44.6;22.3
78541;SHT31;67835;51.968;5.646;2023-09-07T10:28:24;44.6;22.7
78541;SHT31;67835;51.968;5.646;2023-09-07T10:31:01;44.7;23.0
78541;SHT31;67835;51.968;5.646;2023-09-07T10:33:33;44.7;22.8
78541;SHT31;67835;51.968;5.646;2023-09-07T10:36:04;44.8;23.4
78541;SHT31;67835;51.968;5.646;2023-09-07T10:38:34;45.0;22.3
78541;SHT31;67835;51.968;5.646;2023-09-07T10:41:05;45.2;22.7
78541;SHT31;67835;51.968;5.646;2023-09-07T10:43:36;45.3;22.3
78541;SHT31;67835;51.968;5.646;2023-09-07T10:46:12;45.5;22.4
78541;SHT31;67835;51.968;5.646;2023-09-07T10:48:42;45.6;22.4
78541;SHT31;67835;51.968;5.646;2023-09-07T10:51:11;45.8;21.3
78541;SHT31;67835;51.968;5.646;2023-09-07T10:53:40;45.9;22.8
78541;SHT31;67835;51.968;5.646;2023-09-07T10:56:09;46.1;22.2
78541;SHT31;67835;51.968;5.646;2023-09-07T10:58:38;46.2;22.1
78541;SHT31;67835;51.968;5.646;2023-09-07T11:01:09;46.3;21.9
78541;SHT31;67835;51.968;5.646;2023-09-07T11:03:38;46.3;22.2
78541;SHT31;67835;51.968;5.646;2023-09-07T11:06:10;46.4;22.7
78541;SHT31;67835;51.968;5.646;2023-09-07T11:08:39;46.5;22.4
78541;SHT31;67835;51.968;5.646;2023-09-07T11:11:08;46.7;21.4
78541;SHT31;67835;51.968;5.646;2023-09-07T11:13:37;46.8;21.9
78541;SHT31;67835;51.968;5.646;2023-09-07T11:16:08;46.9;21.5
78541;SHT31;67835;51.968;5.646;2023-09-07T11:18:37;46.9;20.6
78541;SHT31;67835;51.968;5.646;2023-09-07T11:21:09;46.9;20.6
78541;SHT31;67835;51.968;5.646;2023-09-07T11:23:38;46.9;20.3
78541;SHT31;67835;51.968;5.646;2023-09-07T11:26:08;46.9;20.3
78541;SHT31;67835;51.968;5.646;2023-09-07T11:28:39;46.9;20.2
78541;SHT31;67835;51.968;5.646;2023-09-07T11:31:08;46.8;19.9
78541;SHT31;67835;51.968;5.646;2023-09-07T11:33:37;46.7;20.4
78541;SHT31;67835;51.968;5.646;2023-09-07T11:36:05;46.6;21.1
78541;SHT31;67835;51.968;5.646;2023-09-07T11:38:37;46.5;21.0
78541;SHT31;67835;51.968;5.646;2023-09-07T11:41:06;46.5;20.4
78541;SHT31;67835;51.968;5.646;2023-09-07T11:43:34;46.5;19.4
78541;SHT31;67835;51.968;5.646;2023-09-07T11:46:03;46.5;19.9
78541;SHT31;67835;51.968;5.646;2023-09-07T11:48:32;46.4;19.6
78541;SHT31;67835;51.968;5.646;2023-09-07T11:51:02;46.3;19.7
78541;SHT31;67835;51.968;5.646;2023-09-07T11:53:31;46.2;19.4
78541;SHT31;67835;51.968;5.646;2023-09-07T11:56:00;46.0;19.7
78541;SHT31;67835;51.968;5.646;2023-09-07T11:58:28;45.8;19.7
78541;SHT31;67835;51.968;5.646;2023-09-07T12:00:57;45.6;19.8
78541;SHT31;67835;51.968;5.646;2023-09-07T12:03:25;45.3;20.0
78541;SHT31;67835;51.968;5.646;2023-09-07T12:05:56;45.1;20.2
78541;SHT31;67835;51.968;5.646;2023-09-07T12:08:25;44.9;20.6
78541;SHT31;67835;51.968;5.646;2023-09-07T12:10:53;44.8;20.6
78541;SHT31;67835;51.968;5.646;2023-09-07T12:13:22;44.6;20.8
78541;SHT31;67835;51.968;5.646;2023-09-07T12:15:52;44.5;21.0
78541;SHT31;67835;51.968;5.646;2023-09-07T12:18:23;44.4;21.7
78541;SHT31;67835;51.968;5.646;2023-09-07T12:20:52;44.4;21.4
78541;SHT31;67835;51.968;5.646;2023-09-07T12:23:20;44.3;21.6
78541;SHT31;67835;51.968;5.646;2023-09-07T12:25:49;44.2;22.3
78541;SHT31;67835;51.968;5.646;2023-09-07T12:28:18;44.1;22.2
78541;SHT31;67835;51.968;5.646;2023-09-07T12:30:47;44.0;21.8
78541;SHT31;67835;51.968;5.646;2023-09-07T12:33:15;44.0;22.0
78541;SHT31;67835;51.968;5.646;2023-09-07T12:35:46;43.9;22.0
78541;SHT31;67835;51.968;5.646;2023-09-07T12:38:14;43.8;22.0
78541;SHT31;67835;51.968;5.646;2023-09-07T12:40:44;43.8;22.2
78541;SHT31;67835;51.968;5.646;2023-09-07T12:43:13;43.7;21.9
78541;SHT31;67835;51.968;5.646;2023-09-07T12:45:41;43.6;22.4
78541;SHT31;67835;51.968;5.646;2023-09-07T12:48:10;43.4;22.6
78541;SHT31;67835;51.968;5.646;2023-09-07T12:50:38;43.3;23.2
78541;SHT31;67835;51.968;5.646;2023-09-07T12:53:07;43.2;23.0
78541;SHT31;67835;51.968;5.646;2023-09-07T12:55:36;43.1;22.7
78541;SHT31;67835;51.968;5.646;2023-09-07T12:58:05;43.1;22.5
78541;SHT31;67835;51.968;5.646;2023-09-07T13:00:34;43.0;22.4
78541;SHT31;67835;51.968;5.646;2023-09-07T13:03:03;42.9;22.8
78541;SHT31;67835;51.968;5.646;2023-09-07T13:05:33;42.8;22.7
78541;SHT31;67835;51.968;5.646;2023-09-07T13:08:03;42.7;22.5
78541;SHT31;67835;51.968;5.646;2023-09-07T13:10:33;42.6;23.2
78541;SHT31;67835;51.968;5.646;2023-09-07T13:13:01;42.5;22.6
78541;SHT31;67835;51.968;5.646;2023-09-07T13:15:30;42.4;22.6
78541;SHT31;67835;51.968;5.646;2023-09-07T13:17:59;42.3;23.5
78541;SHT31;67835;51.968;5.646;2023-09-07T13:20:27;42.1;23.3
78541;SHT31;67835;51.968;5.646;2023-09-07T13:22:56;42.0;22.9
78541;SHT31;67835;51.968;5.646;2023-09-07T13:25:27;41.9;23.2
78541;SHT31;67835;51.968;5.646;2023-09-07T13:27:55;41.7;23.5
78541;SHT31;67835;51.968;5.646;2023-09-07T13:30:24;41.6;23.7
78541;SHT31;67835;51.968;5.646;2023-09-07T13:32:52;41.5;24.1
78541;SHT31;67835;51.968;5.646;2023-09-07T13:35:21;41.4;24.1
78541;SHT31;67835;51.968;5.646;2023-09-07T13:37:49;41.4;23.8
78541;SHT31;67835;51.968;5.646;2023-09-07T13:40:18;41.3;24.0
78541;SHT31;67835;51.968;5.646;2023-09-07T13:42:50;41.2;23.5
78541;SHT31;67835;51.968;5.646;2023-09-07T13:45:19;41.1;23.6
78541;SHT31;67835;51.968;5.646;2023-09-07T13:47:49;41.0;24.2
78541;SHT31;67835;51.968;5.646;2023-09-07T13:50:18;40.9;24.2
78541;SHT31;67835;51.968;5.646;2023-09-07T13:52:47;40.8;24.6
78541;SHT31;67835;51.968;5.646;2023-09-07T13:55:16;40.8;25.1
78541;SHT31;67835;51.968;5.646;2023-09-07T13:57:45;40.7;24.8
78541;SHT31;67835;51.968;5.646;2023-09-07T14:00:15;40.6;24.2
78541;SHT31;67835;51.968;5.646;2023-09-07T14:02:43;40.5;25.2
78541;SHT31;67835;51.968;5.646;2023-09-07T14:05:12;40.5;25.0
78541;SHT31;67835;51.968;5.646;2023-09-07T14:07:41;40.4;25.0
78541;SHT31;67835;51.968;5.646;2023-09-07T14:10:09;40.3;25.3
78541;SHT31;67835;51.968;5.646;2023-09-07T14:12:40;40.2;25.5
78541;SHT31;67835;51.968;5.646;2023-09-07T14:15:10;40.0;25.6
78541;SHT31;67835;51.968;5.646;2023-09-07T14:17:39;39.9;26.0
78541;SHT31;67835;51.968;5.646;2023-09-07T14:20:09;39.8;25.6
78541;SHT31;67835;51.968;5.646;2023-09-07T14:22:37;39.8;25.7
78541;SHT31;67835;51.968;5.646;2023-09-07T14:25:09;39.7;26.3
78541;SHT31;67835;51.968;5.646;2023-09-07T14:27:38;39.6;25.7
78541;SHT31;67835;51.968;5.646;2023-09-07T14:30:07;39.5;26.2
78541;SHT31;67835;51.968;5.646;2023-09-07T14:32:36;39.4;26.3
78541;SHT31;67835;51.968;5.646;2023-09-07T14:35:07;39.3;27.4
78541;SHT31;67835;51.968;5.646;2023-09-07T14:37:37;39.2;26.6
78541;SHT31;67835;51.968;5.646;2023-09-07T14:40:07;39.1;26.9
78541;SHT31;67835;51.968;5.646;2023-09-07T14:42:36;39.1;27.8
78541;SHT31;67835;51.968;5.646;2023-09-07T14:45:06;39.0;27.6
78541;SHT31;67835;51.968;5.646;2023-09-07T14:47:35;39.0;27.1
78541;SHT31;67835;51.968;5.646;2023-09-07T14:50:04;38.9;27.9
78541;SHT31;67835;51.968;5.646;2023-09-07T14:52:33;38.8;27.4
78541;SHT31;67835;51.968;5.646;2023-09-07T14:55:07;38.7;27.7
78541;SHT31;67835;51.968;5.646;2023-09-07T14:57:36;38.7;27.5
78541;SHT31;67835;51.968;5.646;2023-09-07T15:00:07;38.6;27.8
78541;SHT31;67835;51.968;5.646;2023-09-07T15:02:36;38.5;28.1
78541;SHT31;67835;51.968;5.646;2023-09-07T15:05:05;38.5;29.0
78541;SHT31;67835;51.968;5.646;2023-09-07T15:07:33;38.4;29.0
78541;SHT31;67835;51.968;5.646;2023-09-07T15:10:03;38.4;28.9
78541;SHT31;67835;51.968;5.646;2023-09-07T15:12:32;38.3;28.2
78541;SHT31;67835;51.968;5.646;2023-09-07T15:15:01;38.3;28.8
78541;SHT31;67835;51.968;5.646;2023-09-07T15:17:29;38.2;28.5
78541;SHT31;67835;51.968;5.646;2023-09-07T15:19:58;38.2;28.6
78541;SHT31;67835;51.968;5.646;2023-09-07T15:22:28;38.1;28.3
78541;SHT31;67835;51.968;5.646;2023-09-07T15:24:56;38.0;29.5
78541;SHT31;67835;51.968;5.646;2023-09-07T15:27:26;38.0;29.6
78541;SHT31;67835;51.968;5.646;2023-09-07T15:29:55;38.0;31.1
78541;SHT31;67835;51.968;5.646;2023-09-07T15:32:23;37.9;30.1
78541;SHT31;67835;51.968;5.646;2023-09-07T15:34:52;37.9;29.5
78541;SHT31;67835;51.968;5.646;2023-09-07T15:37:20;38.0;30.4
78541;SHT31;67835;51.968;5.646;2023-09-07T15:39:49;38.0;28.9
78541;SHT31;67835;51.968;5.646;2023-09-07T15:42:17;38.0;29.8
78541;SHT31;67835;51.968;5.646;2023-09-07T15:44:47;38.0;30.0
78541;SHT31;67835;51.968;5.646;2023-09-07T15:47:16;38.0;30.0
78541;SHT31;67835;51.968;5.646;2023-09-07T15:49:45;38.0;29.9
78541;SHT31;67835;51.968;5.646;2023-09-07T15:52:19;38.1;30.3
78541;SHT31;67835;51.968;5.646;2023-09-07T15:54:48;38.1;29.5
78541;SHT31;67835;51.968;5.646;2023-09-07T15:57:18;38.1;30.1
78541;SHT31;67835;51.968;5.646;2023-09-07T15:59:48;38.1;30.1
78541;SHT31;67835;51.968;5.646;2023-09-07T16:02:17;38.1;30.0
78541;SHT31;67835;51.968;5.646;2023-09-07T16:04:45;38.1;29.7
78541;SHT31;67835;51.968;5.646;2023-09-07T16:07:14;38.1;29.4
78541;SHT31;67835;51.968;5.646;2023-09-07T16:09:42;38.1;29.4
78541;SHT31;67835;51.968;5.646;2023-09-07T16:12:11;38.1;29.8
78541;SHT31;67835;51.968;5.646;2023-09-07T16:14:40;38.1;29.4
78541;SHT31;67835;51.968;5.646;2023-09-07T16:17:09;38.1;29.6